Weather

Currently

Time Weather Temperature Precipitation Clouds Wind Wind Bumps Pressure
13:06 17,6 °C 17,2 °C 0,0 mm/h 54 % 0,3 m/s 1012,5 mb

Current values recorded by the weather station installed in the spa park. Data updated at 13:06.


Forecast

Time Weather Temperature Precipitation Clouds Wind Wind Bumps Pressure
13:00 16,7 °C 0 mm/h 92 % 1,9 m/s 5,4 m/s 1014 hPa
14:00 17,4 °C 0 mm/h 93 % 1,7 m/s 5,3 m/s 1013 hPa
15:00 18,1 °C 0 mm/h 94 % 2 m/s 5,5 m/s 1013 hPa
16:00 18 °C 0 mm/h 95 % 2,3 m/s 5,9 m/s 1013 hPa
17:00 17,7 °C 0 mm/h 97 % 1,6 m/s 5,9 m/s 1014 hPa
18:00 16,8 °C 0 mm/h 97 % 2,3 m/s 5,7 m/s 1014 hPa
19:00 16,2 °C 0 mm/h 97 % 2,5 m/s 6,1 m/s 1014 hPa
20:00 15,3 °C 0 mm/h 96 % 2,5 m/s 6,5 m/s 1015 hPa
21:00 14,8 °C 0 mm/h 98 % 2,5 m/s 6,2 m/s 1015 hPa
22:00 13,5 °C 0,25 mm/h 99 % 3,1 m/s 9 m/s 1016 hPa
23:00 12,9 °C 0,07 mm/h 100 % 2,9 m/s 7,7 m/s 1016 hPa

Forecast data of ČHMÚ (Czech hydrometeorological institute) based on Aladin numerical model for Konstantinovy Lázně area. The data is updated daily at 6:00.

Time Weather Temperature Precipitation Clouds Wind Wind Bumps Pressure
00:00 12,6 °C 0,09 mm/h 100 % 2,3 m/s 7,5 m/s 1017 hPa
01:00 12,4 °C 0,77 mm/h 100 % 1,9 m/s 5,7 m/s 1017 hPa
02:00 12,2 °C 0,76 mm/h 100 % 1,4 m/s 4,7 m/s 1017 hPa
03:00 12 °C 0,22 mm/h 100 % 1 m/s 3,2 m/s 1017 hPa
04:00 12 °C 0,21 mm/h 100 % 1,3 m/s 3,3 m/s 1017 hPa
05:00 11,7 °C 0,42 mm/h 100 % 0,5 m/s 3 m/s 1016 hPa
06:00 11,7 °C 0,01 mm/h 100 % 1,1 m/s 2,4 m/s 1016 hPa
07:00 11,6 °C 0 mm/h 100 % 0,9 m/s 2,5 m/s 1016 hPa
08:00 11,7 °C 0 mm/h 100 % 0,8 m/s 1,6 m/s 1016 hPa
09:00 12,2 °C 0 mm/h 99 % 1,1 m/s 2,7 m/s 1017 hPa
10:00 12,9 °C 0 mm/h 98 % 1 m/s 2,8 m/s 1016 hPa
11:00 14 °C 0 mm/h 77 % 0,5 m/s 2,8 m/s 1016 hPa
12:00 15,1 °C 0 mm/h 88 % 1,4 m/s 3,9 m/s 1015 hPa
13:00 15,9 °C 0 mm/h 76 % 1,7 m/s 4,6 m/s 1015 hPa
14:00 16,4 °C 0 mm/h 61 % 2 m/s 5,3 m/s 1014 hPa
15:00 16,8 °C 0 mm/h 56 % 1,1 m/s 5,3 m/s 1013 hPa
16:00 16,9 °C 0 mm/h 89 % 1,7 m/s 4,4 m/s 1012 hPa
17:00 16,6 °C 0 mm/h 90 % 1,5 m/s 4,5 m/s 1012 hPa
18:00 15,8 °C 0 mm/h 100 % 1,2 m/s 4 m/s 1011 hPa
19:00 14,5 °C 0 mm/h 100 % 0,9 m/s 2,7 m/s 1011 hPa
20:00 13,6 °C 0 mm/h 100 % 0,6 m/s 1,3 m/s 1011 hPa
21:00 13,1 °C 0 mm/h 100 % 1,2 m/s 1,7 m/s 1011 hPa
22:00 13 °C 0 mm/h 99 % 1,4 m/s 2,3 m/s 1011 hPa
23:00 13,4 °C 0,17 mm/h 100 % 2,3 m/s 5,6 m/s 1011 hPa

Forecast data of ČHMÚ (Czech hydrometeorological institute) based on Aladin numerical model for Konstantinovy Lázně area. The data is updated daily at 6:00.

Time Weather Temperature Precipitation Clouds Wind Wind Bumps Pressure
00:00 12,9 °C 0,44 mm/h 100 % 1,5 m/s 6,7 m/s 1011 hPa
01:00 12,5 °C 0 mm/h 100 % 0,8 m/s 3,4 m/s 1010 hPa
02:00 12,4 °C 0,43 mm/h 100 % 1,8 m/s 4,9 m/s 1010 hPa
03:00 11,9 °C 0,36 mm/h 99 % 0,9 m/s 4,4 m/s 1010 hPa
04:00 11,9 °C 0 mm/h 97 % 1,2 m/s 2,8 m/s 1010 hPa
05:00 11,7 °C 0 mm/h 68 % 2,1 m/s 5,4 m/s 1009 hPa
06:00 11,5 °C 0 mm/h 100 % 1,9 m/s 5 m/s 1009 hPa
07:00 11,6 °C 0,19 mm/h 99 % 2,1 m/s 5,1 m/s 1009 hPa
08:00 11,9 °C 0,18 mm/h 100 % 2,5 m/s 6,2 m/s 1009 hPa
09:00 12,2 °C 0,57 mm/h 100 % 2,6 m/s 6,5 m/s 1009 hPa
10:00 12,2 °C 0,56 mm/h 100 % 2,4 m/s 6,7 m/s 1010 hPa
11:00 12,3 °C 0,96 mm/h 100 % 2,9 m/s 7,7 m/s 1010 hPa
12:00 12,3 °C 1,07 mm/h 100 % 2,7 m/s 7,4 m/s 1010 hPa
13:00 12,7 °C 0,8 mm/h 96 % 2,3 m/s 7,1 m/s 1010 hPa
14:00 13,2 °C 0,25 mm/h 95 % 3 m/s 8,5 m/s 1009 hPa
15:00 13,4 °C 0 mm/h 99 % 3 m/s 9,1 m/s 1009 hPa
16:00 13,3 °C 0,18 mm/h 100 % 2,3 m/s 7,6 m/s 1009 hPa
17:00 13,3 °C 0,11 mm/h 96 % 3 m/s 7,9 m/s 1009 hPa
18:00 12,7 °C 0 mm/h 95 % 2,6 m/s 7,3 m/s 1009 hPa
19:00 12,1 °C 0 mm/h 95 % 1,9 m/s 6,3 m/s 1009 hPa
20:00 11,8 °C 0 mm/h 98 % 2,1 m/s 4,9 m/s 1010 hPa
21:00 11,5 °C 0,43 mm/h 100 % 2 m/s 5,4 m/s 1010 hPa
22:00 10,9 °C 0,08 mm/h 91 % 1,4 m/s 5 m/s 1010 hPa
23:00 10,8 °C 0,01 mm/h 95 % 1,8 m/s 4,2 m/s 1010 hPa

Forecast data of ČHMÚ (Czech hydrometeorological institute) based on Aladin numerical model for Konstantinovy Lázně area. The data is updated daily at 6:00.